createdAt,value
2019-04-30T00:02:15.942Z,15.45
2019-04-30T00:04:51.963Z,15.90
2019-04-30T00:07:20.490Z,13.95
2019-04-30T00:09:49.333Z,12.78
2019-04-30T00:12:19.662Z,14.18
2019-04-30T00:14:48.143Z,15.40
2019-04-30T00:17:19.655Z,12.07
2019-04-30T00:19:50.560Z,12.03
2019-04-30T00:22:16.966Z,12.50
2019-04-30T00:24:49.744Z,11.57
2019-04-30T00:27:21.117Z,12.43
2019-04-30T00:29:46.999Z,14.65
2019-04-30T00:32:15.987Z,14.43
2019-04-30T00:34:45.602Z,16.45
2019-04-30T00:37:18.536Z,12.93
2019-04-30T00:39:50.714Z,13.53
2019-04-30T00:42:17.239Z,15.78
2019-04-30T00:44:45.681Z,13.40
2019-04-30T00:47:15.451Z,16.82
2019-04-30T00:49:44.874Z,17.42
2019-04-30T00:52:15.388Z,16.60
2019-04-30T00:54:45.213Z,18.92
2019-04-30T00:57:15.136Z,17.15
2019-04-30T00:59:47.791Z,17.92
2019-04-30T01:02:32.965Z,18.57
2019-04-30T01:05:05.333Z,17.02
2019-04-30T01:07:33.231Z,19.30
2019-04-30T01:10:01.749Z,17.62
2019-04-30T01:12:34.639Z,21.25
2019-04-30T01:15:01.685Z,18.67
2019-04-30T01:17:30.594Z,17.30
2019-04-30T01:19:59.684Z,18.35
2019-04-30T01:22:32.621Z,18.67
2019-04-30T01:25:01.284Z,16.57
2019-04-30T01:27:29.620Z,20.65
2019-04-30T01:29:58.576Z,20.90
2019-04-30T01:32:28.475Z,18.48
2019-04-30T01:34:58.887Z,22.07
2019-04-30T01:37:29.588Z,21.57
2019-04-30T01:39:58.915Z,18.37
2019-04-30T01:42:28.418Z,19.57
2019-04-30T01:44:58.847Z,21.68
2019-04-30T01:47:28.092Z,21.30
2019-04-30T01:50:03.055Z,20.08
2019-04-30T01:52:35.124Z,19.35
2019-04-30T01:54:59.445Z,22.27
2019-04-30T01:57:39.047Z,21.20
2019-04-30T02:00:14.958Z,18.98
2019-04-30T02:02:47.103Z,23.02
2019-04-30T02:05:15.543Z,21.23
2019-04-30T02:07:46.015Z,24.45
2019-04-30T02:10:14.391Z,25.35
2019-04-30T02:12:42.849Z,21.93
2019-04-30T02:15:11.441Z,23.98
2019-04-30T02:17:39.911Z,23.38
2019-04-30T02:20:08.962Z,25.40
2019-04-30T02:22:38.938Z,27.62
2019-04-30T02:25:09.607Z,26.80
2019-04-30T02:27:39.053Z,27.60
2019-04-30T02:30:11.284Z,28.27
2019-04-30T02:32:39.783Z,28.85
2019-04-30T02:35:10.592Z,26.93
2019-04-30T02:37:59.592Z,27.10
2019-04-30T02:40:30.160Z,26.75
2019-04-30T02:43:01.598Z,28.87
2019-04-30T02:45:29.975Z,31.52
2019-04-30T02:47:59.629Z,31.70
2019-04-30T02:50:29.473Z,32.75
2019-04-30T02:53:02.749Z,29.00
2019-04-30T02:55:36.549Z,31.65
2019-04-30T02:58:05.079Z,34.70
2019-04-30T03:00:33.599Z,30.08
2019-04-30T03:03:02.081Z,25.70
2019-04-30T03:05:31.083Z,33.15
2019-04-30T03:08:00.487Z,29.02
2019-04-30T03:10:30.382Z,31.23
2019-04-30T03:13:00.003Z,27.27
2019-04-30T03:15:29.873Z,26.90
2019-04-30T03:18:00.750Z,26.65
2019-04-30T03:20:36.206Z,27.02
2019-04-30T03:23:02.407Z,29.02
2019-04-30T03:25:31.092Z,27.93
2019-04-30T03:28:00.367Z,24.80
2019-04-30T03:30:32.112Z,29.15
2019-04-30T03:33:02.707Z,30.88
2019-04-30T03:35:32.411Z,32.08
2019-04-30T03:37:59.660Z,28.67
2019-04-30T03:40:30.218Z,30.72
2019-04-30T03:43:02.676Z,31.00
2019-04-30T03:45:30.160Z,32.15
2019-04-30T03:48:00.317Z,35.60
2019-04-30T03:50:32.877Z,31.65
2019-04-30T03:53:00.453Z,32.83
2019-04-30T03:55:29.898Z,32.17
2019-04-30T03:58:00.151Z,36.68
2019-04-30T04:00:36.213Z,32.78
2019-04-30T04:03:04.674Z,33.13
2019-04-30T04:05:40.792Z,37.25
2019-04-30T04:08:19.330Z,32.90
2019-04-30T04:10:50.297Z,34.33
2019-04-30T04:13:19.778Z,33.60
2019-04-30T04:15:49.892Z,27.35
2019-04-30T04:18:20.216Z,28.67
2019-04-30T04:20:51.995Z,30.50
2019-04-30T04:23:19.348Z,27.55
2019-04-30T04:25:49.935Z,29.87
2019-04-30T04:28:20.285Z,26.42
2019-04-30T04:30:50.669Z,26.97
2019-04-30T04:33:19.910Z,30.50
2019-04-30T04:35:49.860Z,27.42
2019-04-30T04:38:20.472Z,31.12
2019-04-30T04:40:50.156Z,30.30
2019-04-30T04:43:20.189Z,31.00
2019-04-30T04:45:49.756Z,33.55
2019-04-30T04:48:19.931Z,33.58
2019-04-30T04:50:50.128Z,32.48
2019-04-30T04:53:19.609Z,29.75
2019-04-30T04:55:49.987Z,28.17
2019-04-30T04:58:21.705Z,30.20
2019-04-30T05:00:49.458Z,30.82
2019-04-30T05:03:31.619Z,31.65
2019-04-30T05:06:02.495Z,34.67
2019-04-30T05:08:30.315Z,33.20
2019-04-30T05:10:59.449Z,31.10
2019-04-30T05:13:29.048Z,27.85
2019-04-30T05:15:59.378Z,28.92
2019-04-30T05:18:29.152Z,27.35
2019-04-30T05:20:59.012Z,27.75
2019-04-30T05:23:29.869Z,26.15
2019-04-30T05:25:58.920Z,29.80
2019-04-30T05:28:29.957Z,28.65
2019-04-30T05:30:59.372Z,25.95
2019-04-30T05:33:28.566Z,29.82
2019-04-30T05:35:59.272Z,26.60
2019-04-30T05:38:28.715Z,31.55
2019-04-30T05:40:59.445Z,25.52
2019-04-30T05:43:28.955Z,24.10
2019-04-30T05:45:58.787Z,23.20
2019-04-30T05:48:28.559Z,21.95
2019-04-30T05:50:58.962Z,27.25
2019-04-30T05:53:28.664Z,26.05
2019-04-30T05:55:59.429Z,25.02
2019-04-30T05:58:29.885Z,26.85
2019-04-30T06:00:59.686Z,24.47
2019-04-30T06:03:33.053Z,28.40
2019-04-30T06:05:59.180Z,26.70
2019-04-30T06:08:29.333Z,29.02
2019-04-30T06:11:11.544Z,34.40
2019-04-30T06:13:49.149Z,25.57
2019-04-30T06:16:19.184Z,29.05
2019-04-30T06:18:48.526Z,27.35
2019-04-30T06:21:21.321Z,27.42
2019-04-30T06:23:49.186Z,29.65
2019-04-30T06:26:20.480Z,25.35
2019-04-30T06:28:49.609Z,29.00
2019-04-30T06:31:31.665Z,26.90
2019-04-30T06:33:49.970Z,24.23
2019-04-30T06:36:19.199Z,25.37
2019-04-30T06:38:48.956Z,24.82
2019-04-30T06:41:19.698Z,28.87
2019-04-30T06:43:48.914Z,31.35
2019-04-30T06:46:18.694Z,25.30
2019-04-30T06:48:50.812Z,24.20
2019-04-30T06:51:18.888Z,24.72
2019-04-30T06:53:49.548Z,24.00
2019-04-30T06:56:18.955Z,24.02
2019-04-30T06:58:49.661Z,19.98
2019-04-30T07:01:19.062Z,20.65
2019-04-30T07:03:48.697Z,22.10
2019-04-30T07:06:27.502Z,19.92
2019-04-30T07:09:01.267Z,21.65
2019-04-30T07:11:39.201Z,18.60
2019-04-30T07:14:09.633Z,17.42
2019-04-30T07:16:39.711Z,18.17
2019-04-30T07:19:09.295Z,17.45
2019-04-30T07:21:42.789Z,16.77
2019-04-30T07:24:09.407Z,17.25
2019-04-30T07:26:38.888Z,18.80
2019-04-30T07:29:09.524Z,20.68
2019-04-30T07:31:39.299Z,16.62
2019-04-30T07:34:09.339Z,18.27
2019-04-30T07:36:48.293Z,15.28
2019-04-30T07:39:09.978Z,15.68
2019-04-30T07:41:40.270Z,17.20
2019-04-30T07:44:11.014Z,15.43
2019-04-30T07:46:41.184Z,17.55
2019-04-30T07:49:10.167Z,14.07
2019-04-30T07:51:41.966Z,14.40
2019-04-30T07:54:10.764Z,14.45
2019-04-30T07:56:41.689Z,12.88
2019-04-30T07:59:11.077Z,15.03
2019-04-30T08:02:00.499Z,14.93
2019-04-30T08:04:29.091Z,14.25
2019-04-30T08:06:59.799Z,14.15
2019-04-30T08:09:38.712Z,11.70
2019-04-30T08:11:59.014Z,12.07
2019-04-30T08:14:28.810Z,13.13
2019-04-30T08:16:58.903Z,12.30
2019-04-30T08:19:28.710Z,14.07
2019-04-30T08:21:58.588Z,13.00
2019-04-30T08:24:29.080Z,11.60
2019-04-30T08:26:59.072Z,10.60
2019-04-30T08:29:47.003Z,11.28
2019-04-30T08:32:15.467Z,9.83
2019-04-30T08:34:43.941Z,8.00
2019-04-30T08:37:20.244Z,9.03
2019-04-30T08:39:49.675Z,7.97
2019-04-30T08:42:29.056Z,8.78
2019-04-30T08:44:48.738Z,10.03
2019-04-30T08:47:20.956Z,9.20
2019-04-30T08:49:50.008Z,8.68
2019-04-30T08:52:19.766Z,8.58
2019-04-30T08:54:49.609Z,9.35
2019-04-30T08:57:19.057Z,8.83
2019-04-30T08:59:49.515Z,8.80
2019-04-30T09:02:19.708Z,8.30
2019-04-30T09:04:50.384Z,8.48
2019-04-30T09:07:19.701Z,7.90
2019-04-30T09:09:48.853Z,6.97
2019-04-30T09:12:19.421Z,7.85
2019-04-30T09:14:49.034Z,7.53
2019-04-30T09:17:19.650Z,8.83
2019-04-30T09:19:49.020Z,9.33
2019-04-30T09:22:19.571Z,8.25
2019-04-30T09:24:49.742Z,7.20
2019-04-30T09:27:19.579Z,11.90
2019-04-30T09:29:49.160Z,7.80
2019-04-30T09:32:19.251Z,8.18
2019-04-30T09:34:48.908Z,7.72
2019-04-30T09:37:18.660Z,8.63
2019-04-30T09:39:49.483Z,7.62
2019-04-30T09:42:19.520Z,7.92
2019-04-30T09:44:49.244Z,8.15
2019-04-30T09:47:19.902Z,8.73
2019-04-30T09:49:49.384Z,8.75
2019-04-30T09:52:19.220Z,9.38
2019-04-30T09:54:51.642Z,10.45
2019-04-30T09:57:21.821Z,14.98
2019-04-30T09:59:50.360Z,9.65
2019-04-30T10:02:19.304Z,10.08
2019-04-30T10:04:49.902Z,9.63
2019-04-30T10:07:19.539Z,8.23
2019-04-30T10:09:51.617Z,11.63
2019-04-30T10:12:20.177Z,10.48
2019-04-30T10:14:49.562Z,10.40
2019-04-30T10:17:28.743Z,11.55
2019-04-30T10:19:57.205Z,10.20
2019-04-30T10:22:25.715Z,12.80
2019-04-30T10:24:54.183Z,14.20
2019-04-30T10:27:22.720Z,12.75
2019-04-30T10:29:51.664Z,14.35
2019-04-30T10:32:20.170Z,14.83
2019-04-30T10:34:48.747Z,14.38
2019-04-30T10:37:18.910Z,15.72
2019-04-30T10:39:48.964Z,11.90
2019-04-30T10:42:17.702Z,14.90
2019-04-30T10:44:46.257Z,26.07
2019-04-30T10:47:15.200Z,13.90
2019-04-30T10:49:43.674Z,15.40
2019-04-30T10:52:12.264Z,17.60
2019-04-30T10:54:40.791Z,18.55
2019-04-30T10:57:09.267Z,17.30
2019-04-30T10:59:37.784Z,17.32
2019-04-30T11:02:09.142Z,14.20
2019-04-30T11:04:37.683Z,8.90
2019-04-30T11:07:06.223Z,9.58
2019-04-30T11:09:35.343Z,9.38
2019-04-30T11:12:04.120Z,12.03
2019-04-30T11:14:32.565Z,11.63
2019-04-30T11:17:01.310Z,11.55
2019-04-30T11:19:30.218Z,11.93
2019-04-30T11:21:59.023Z,13.00
2019-04-30T11:24:36.545Z,17.52
2019-04-30T11:27:00.030Z,16.62
2019-04-30T11:29:30.634Z,18.55
2019-04-30T11:32:00.037Z,17.00
2019-04-30T11:34:29.629Z,15.75
2019-04-30T11:36:58.147Z,19.37
2019-04-30T11:39:27.157Z,15.53
2019-04-30T11:41:55.657Z,20.70
2019-04-30T11:44:31.060Z,13.45
2019-04-30T11:47:00.730Z,18.05
2019-04-30T11:49:29.276Z,18.77
2019-04-30T11:51:57.798Z,19.73
2019-04-30T11:54:26.370Z,19.82
2019-04-30T11:56:54.886Z,21.15
2019-04-30T11:59:23.403Z,19.60
2019-04-30T12:01:53.512Z,16.65
2019-04-30T12:04:21.966Z,17.12
2019-04-30T12:06:51.072Z,19.60
2019-04-30T12:09:21.168Z,19.70
2019-04-30T12:11:50.717Z,18.32
2019-04-30T12:14:20.246Z,22.50
2019-04-30T12:16:50.707Z,21.77
2019-04-30T12:19:19.413Z,24.70
2019-04-30T12:21:47.852Z,23.95
2019-04-30T12:24:16.313Z,23.60
2019-04-30T12:26:44.906Z,20.45
2019-04-30T12:29:13.365Z,19.60
2019-04-30T12:31:41.824Z,22.10
2019-04-30T12:34:10.289Z,25.80
2019-04-30T12:36:38.877Z,21.80
2019-04-30T12:39:07.648Z,20.77
2019-04-30T12:41:36.147Z,22.90
2019-04-30T12:44:04.740Z,24.98
2019-04-30T12:46:33.205Z,23.00
2019-04-30T12:49:11.808Z,22.45
2019-04-30T12:51:46.118Z,26.77
2019-04-30T12:54:34.689Z,25.27
2019-04-30T12:57:10.909Z,26.30
2019-04-30T12:59:38.044Z,27.87
2019-04-30T13:02:06.698Z,26.48
2019-04-30T13:04:35.156Z,30.25
2019-04-30T13:07:04.238Z,29.45
2019-04-30T13:09:33.779Z,28.10
2019-04-30T13:12:03.201Z,30.48
2019-04-30T13:14:32.954Z,27.32
2019-04-30T13:17:02.432Z,29.35
2019-04-30T13:19:30.892Z,28.77
2019-04-30T13:22:00.986Z,29.05
2019-04-30T13:24:31.359Z,29.52
2019-04-30T13:26:59.690Z,27.05
2019-04-30T13:29:29.772Z,31.57
2019-04-30T13:31:58.589Z,24.57
2019-04-30T13:34:45.156Z,20.37
2019-04-30T13:37:15.576Z,20.68
2019-04-30T13:39:54.862Z,23.45
2019-04-30T13:42:30.792Z,19.30
2019-04-30T13:44:59.259Z,21.82
2019-04-30T13:47:29.253Z,25.55
2019-04-30T13:49:59.351Z,25.15
2019-04-30T13:52:28.891Z,22.95
2019-04-30T13:54:58.206Z,22.55
2019-04-30T13:57:26.723Z,23.85
2019-04-30T13:59:55.177Z,21.65
2019-04-30T14:02:30.660Z,25.30
2019-04-30T14:05:06.767Z,21.23
2019-04-30T14:07:45.930Z,24.63
2019-04-30T14:10:14.773Z,21.80
2019-04-30T14:12:47.367Z,23.52
2019-04-30T14:15:20.014Z,23.42
2019-04-30T14:17:49.359Z,20.65
2019-04-30T14:20:18.119Z,19.55
2019-04-30T14:22:46.645Z,23.07
2019-04-30T14:25:15.835Z,23.55
2019-04-30T14:27:51.760Z,20.70
2019-04-30T14:30:15.293Z,21.48
2019-04-30T14:32:43.786Z,24.67
2019-04-30T14:35:12.489Z,22.77
2019-04-30T14:37:40.941Z,21.73
2019-04-30T14:40:12.711Z,23.22
2019-04-30T14:42:47.763Z,21.15
2019-04-30T14:45:24.417Z,22.42
2019-04-30T14:48:00.522Z,24.80
2019-04-30T14:50:32.160Z,19.82
2019-04-30T14:53:02.299Z,22.82
2019-04-30T14:55:39.331Z,24.20
2019-04-30T14:58:09.758Z,19.95
2019-04-30T15:00:39.922Z,22.27
2019-04-30T15:03:13.030Z,22.77
2019-04-30T15:05:48.556Z,26.17
2019-04-30T15:08:11.684Z,25.43
2019-04-30T15:10:40.340Z,23.00
2019-04-30T15:13:09.730Z,19.45
2019-04-30T15:15:39.211Z,25.55
2019-04-30T15:18:09.423Z,23.57
2019-04-30T15:20:39.835Z,24.45
2019-04-30T15:23:28.047Z,23.02
2019-04-30T15:25:58.560Z,24.15
2019-04-30T15:28:32.530Z,21.87
2019-04-30T15:30:58.710Z,23.45
2019-04-30T15:33:34.613Z,24.12
2019-04-30T15:36:06.592Z,23.75
2019-04-30T15:38:52.908Z,24.67
2019-04-30T15:41:21.770Z,26.62
2019-04-30T15:43:50.234Z,21.17
2019-04-30T15:46:18.821Z,26.00
2019-04-30T15:48:47.590Z,24.82
2019-04-30T15:51:16.054Z,22.70
2019-04-30T15:53:44.503Z,21.00
2019-04-30T15:56:12.971Z,22.82
2019-04-30T15:58:59.221Z,21.62
2019-04-30T16:01:29.056Z,23.30
2019-04-30T16:03:58.210Z,20.77
2019-04-30T16:06:28.453Z,19.60
2019-04-30T16:08:58.554Z,22.22
2019-04-30T16:11:29.485Z,18.10
2019-04-30T16:14:16.225Z,26.10
2019-04-30T16:16:46.392Z,24.02
2019-04-30T16:19:14.850Z,19.40
2019-04-30T16:21:43.316Z,22.55
2019-04-30T16:24:11.784Z,23.07
2019-04-30T16:26:49.309Z,22.87
2019-04-30T16:29:10.464Z,22.65
2019-04-30T16:31:39.207Z,22.80
2019-04-30T16:34:07.757Z,21.75
2019-04-30T16:36:36.240Z,21.30
2019-04-30T16:39:08.935Z,19.95
2019-04-30T16:41:40.550Z,23.10
2019-04-30T16:44:09.208Z,20.77
2019-04-30T16:46:39.519Z,21.27
2019-04-30T16:49:09.996Z,21.50
2019-04-30T16:51:38.664Z,20.52
2019-04-30T16:54:08.674Z,22.32
2019-04-30T16:56:38.648Z,21.70
2019-04-30T16:59:18.095Z,19.17
2019-04-30T17:01:57.480Z,18.00
2019-04-30T17:04:29.076Z,20.40
2019-04-30T17:07:02.108Z,20.92
2019-04-30T17:09:35.260Z,21.80
2019-04-30T17:12:05.507Z,18.80
2019-04-30T17:14:35.639Z,20.17
2019-04-30T17:17:04.336Z,19.15
2019-04-30T17:19:39.353Z,20.72
2019-04-30T17:22:08.113Z,20.48
2019-04-30T17:24:36.601Z,21.00
2019-04-30T17:27:16.359Z,20.25
2019-04-30T17:29:36.828Z,17.37
2019-04-30T17:32:05.385Z,20.50
2019-04-30T17:34:33.881Z,18.92
2019-04-30T17:37:02.407Z,19.50
2019-04-30T17:39:30.901Z,20.80
2019-04-30T17:41:59.398Z,21.50
2019-04-30T17:44:28.906Z,20.32
2019-04-30T17:46:57.652Z,19.45
2019-04-30T17:49:26.516Z,16.48
2019-04-30T17:51:54.980Z,19.75
2019-04-30T17:54:23.460Z,18.70
2019-04-30T17:56:52.008Z,20.43
2019-04-30T17:59:20.529Z,20.15
2019-04-30T18:01:53.457Z,22.10
2019-04-30T18:04:22.571Z,22.60
2019-04-30T18:06:51.131Z,18.48
2019-04-30T18:09:20.103Z,20.02
2019-04-30T18:11:49.610Z,23.18
2019-04-30T18:14:18.811Z,22.02
2019-04-30T18:16:48.685Z,22.42
2019-04-30T18:19:28.683Z,20.30
2019-04-30T18:21:59.672Z,20.72
2019-04-30T18:24:39.441Z,20.50
2019-04-30T18:27:09.781Z,21.35
2019-04-30T18:29:38.277Z,23.45
2019-04-30T18:32:09.323Z,21.85
2019-04-30T18:34:39.124Z,24.43
2019-04-30T18:37:09.010Z,24.10
2019-04-30T18:39:37.783Z,23.90
2019-04-30T18:42:06.263Z,21.80
2019-04-30T18:44:34.765Z,24.45
2019-04-30T18:47:03.243Z,22.07
2019-04-30T18:49:31.810Z,23.10
2019-04-30T18:52:00.301Z,22.37
2019-04-30T18:54:29.047Z,23.07
2019-04-30T18:56:58.948Z,24.35
2019-04-30T18:59:27.464Z,25.50
2019-04-30T19:01:56.065Z,25.43
2019-04-30T19:04:24.553Z,29.75
2019-04-30T19:06:57.590Z,23.90
2019-04-30T19:09:29.495Z,25.45
2019-04-30T19:12:02.228Z,27.45
2019-04-30T19:14:32.401Z,28.92
2019-04-30T19:17:02.533Z,23.87
2019-04-30T19:19:41.721Z,26.25
2019-04-30T19:22:10.189Z,28.73
2019-04-30T19:24:38.679Z,26.20
2019-04-30T19:27:08.668Z,25.37
2019-04-30T19:29:37.441Z,21.82
2019-04-30T19:32:06.041Z,23.15
2019-04-30T19:34:34.519Z,25.85
2019-04-30T19:37:03.033Z,22.90
2019-04-30T19:39:32.535Z,30.10
2019-04-30T19:42:01.351Z,22.70
2019-04-30T19:44:29.836Z,23.05
2019-04-30T19:46:58.652Z,26.80
2019-04-30T19:49:27.345Z,25.50
2019-04-30T19:52:06.137Z,23.92
2019-04-30T19:54:26.142Z,25.30
2019-04-30T19:56:54.670Z,23.83
2019-04-30T19:59:23.161Z,27.00
2019-04-30T20:01:53.450Z,21.70
2019-04-30T20:04:32.799Z,23.18
2019-04-30T20:06:52.123Z,24.05
2019-04-30T20:09:20.630Z,21.48
2019-04-30T20:11:49.375Z,24.98
2019-04-30T20:14:18.682Z,21.75
2019-04-30T20:16:48.718Z,24.65
2019-04-30T20:19:17.419Z,27.95
2019-04-30T20:21:53.016Z,21.07
2019-04-30T20:24:16.199Z,24.15
2019-04-30T20:26:45.126Z,25.32
2019-04-30T20:29:18.539Z,23.38
2019-04-30T20:31:48.749Z,27.60
2019-04-30T20:34:19.042Z,21.70
2019-04-30T20:36:47.392Z,25.37
2019-04-30T20:39:20.702Z,25.20
2019-04-30T20:41:51.519Z,23.22
2019-04-30T20:44:20.051Z,24.10
2019-04-30T20:46:49.125Z,27.90
2019-04-30T20:49:19.239Z,27.85
2019-04-30T20:51:55.057Z,23.62
2019-04-30T20:54:19.009Z,25.97
2019-04-30T20:56:48.330Z,23.47
2019-04-30T20:59:19.015Z,23.75
2019-04-30T21:01:48.997Z,25.70
2019-04-30T21:04:20.366Z,23.50
2019-04-30T21:06:49.647Z,25.05
2019-04-30T21:09:18.038Z,21.93
2019-04-30T21:11:46.509Z,26.33
2019-04-30T21:14:14.976Z,23.20
2019-04-30T21:16:43.540Z,26.20
2019-04-30T21:19:12.130Z,29.35
2019-04-30T21:21:40.750Z,21.42
2019-04-30T21:24:09.624Z,26.07
2019-04-30T21:26:38.372Z,23.65
2019-04-30T21:29:13.211Z,26.93
2019-04-30T21:31:44.794Z,22.15
2019-04-30T21:34:15.020Z,22.52
2019-04-30T21:36:43.527Z,27.62
2019-04-30T21:39:12.066Z,24.40
2019-04-30T21:41:40.599Z,24.10
2019-04-30T21:44:09.168Z,24.85
2019-04-30T21:46:39.463Z,25.62
2019-04-30T21:49:08.909Z,27.93
2019-04-30T21:51:40.014Z,25.50
2019-04-30T21:54:07.878Z,25.70
2019-04-30T21:56:36.403Z,25.37
2019-04-30T21:59:04.876Z,24.65
2019-04-30T22:01:33.790Z,25.08
2019-04-30T22:04:02.323Z,26.93
2019-04-30T22:06:30.804Z,26.40
2019-04-30T22:08:59.816Z,26.75
2019-04-30T22:11:29.619Z,25.68
2019-04-30T22:13:58.368Z,24.70
2019-04-30T22:16:26.878Z,29.10
2019-04-30T22:18:55.405Z,26.45
2019-04-30T22:21:23.893Z,26.62
2019-04-30T22:23:52.388Z,29.67
2019-04-30T22:26:20.928Z,30.02
2019-04-30T22:28:49.527Z,29.95
2019-04-30T22:31:19.738Z,28.23
2019-04-30T22:33:49.081Z,31.30
2019-04-30T22:36:28.994Z,31.07
2019-04-30T22:39:15.573Z,27.98
2019-04-30T22:41:44.053Z,30.43
2019-04-30T22:44:12.594Z,27.75
2019-04-30T22:46:41.064Z,31.30
2019-04-30T22:49:09.542Z,30.23
2019-04-30T22:51:38.012Z,29.32
2019-04-30T22:54:06.475Z,26.00
2019-04-30T22:56:34.951Z,30.37
2019-04-30T22:59:03.441Z,28.40
2019-04-30T23:01:33.588Z,31.25
2019-04-30T23:04:03.697Z,31.90
2019-04-30T23:06:32.161Z,28.00
2019-04-30T23:09:00.670Z,28.32
2019-04-30T23:11:30.744Z,26.87
2019-04-30T23:13:59.204Z,28.25
2019-04-30T23:16:27.664Z,28.62
2019-04-30T23:18:56.142Z,28.80
2019-04-30T23:21:24.605Z,28.45
2019-04-30T23:23:53.068Z,26.68
2019-04-30T23:26:21.548Z,27.25
2019-04-30T23:28:51.636Z,30.12
2019-04-30T23:31:20.109Z,29.15
2019-04-30T23:33:48.593Z,26.12
2019-04-30T23:36:17.116Z,27.95
2019-04-30T23:38:48.051Z,30.55
2019-04-30T23:41:16.516Z,26.27
2019-04-30T23:43:44.973Z,26.77
2019-04-30T23:46:13.450Z,29.77
2019-04-30T23:48:41.918Z,27.40
2019-04-30T23:51:10.419Z,27.42
2019-04-30T23:53:38.888Z,27.87
2019-04-30T23:56:07.450Z,28.42
2019-04-30T23:58:35.952Z,27.55
